Time;durP1;ratioP1;P1;durP2;ratioP2;P2;SDS_P1;SDS_P2;PMS_P1;PMS_P2;Temp;Humidity;BMP_temperature;BMP_pressure;BME280_temperature;BME280_humidity;BME280_pressure;Samples;Min_cycle;Max_cycle;Signal;HPM_P1;HPM_P2
2022/12/26 00:01:11;;;;;;;395.87;376.23;;;7.80;99.90;;;;;;5055744;28;20388;-60
2022/12/26 00:03:37;;;;;;;388.05;368.85;;;7.80;99.90;;;;;;5073709;28;20473;-62
2022/12/26 00:06:03;;;;;;;387.55;368.02;;;7.90;99.90;;;;;;5055401;28;20400;-60
2022/12/26 00:08:29;;;;;;;403.80;383.23;;;8.00;99.90;;;;;;5072226;28;20414;-61
2022/12/26 00:10:55;;;;;;;404.95;384.13;;;7.90;99.90;;;;;;5055528;28;20463;-61
2022/12/26 00:13:20;;;;;;;413.60;392.67;;;7.90;99.90;;;;;;5055109;28;20439;-61
2022/12/26 00:15:46;;;;;;;418.90;397.38;;;7.90;99.90;;;;;;5056560;28;20646;-61
2022/12/26 00:18:11;;;;;;;396.83;377.02;;;8.00;99.90;;;;;;5055931;28;20453;-60
2022/12/26 00:20:37;;;;;;;415.43;394.63;;;7.90;99.90;;;;;;5056312;28;20810;-61
2022/12/26 00:23:02;;;;;;;425.73;404.40;;;8.00;99.90;;;;;;5056231;28;20396;-61
2022/12/26 00:25:28;;;;;;;430.80;408.40;;;8.00;99.90;;;;;;5074825;28;20452;-61
2022/12/26 00:27:54;;;;;;;434.83;412.67;;;7.90;99.90;;;;;;5057752;28;20671;-60
2022/12/26 00:30:20;;;;;;;412.92;391.75;;;7.90;99.90;;;;;;5056100;28;20732;-61
2022/12/26 00:32:45;;;;;;;439.48;417.05;;;7.90;99.90;;;;;;5057155;28;20406;-60
2022/12/26 00:35:11;;;;;;;426.98;404.85;;;7.90;99.90;;;;;;5056480;28;20786;-60
2022/12/26 00:37:36;;;;;;;415.07;393.90;;;7.80;99.90;;;;;;5055588;28;20483;-60
2022/12/26 00:40:02;;;;;;;398.10;377.30;;;7.80;99.90;;;;;;5053859;28;20436;-60
2022/12/26 00:42:28;;;;;;;400.55;380.08;;;7.80;99.90;;;;;;5070702;28;20383;-60
2022/12/26 00:44:53;;;;;;;378.87;359.67;;;7.80;99.90;;;;;;5072098;28;20478;-62
2022/12/26 00:47:19;;;;;;;357.75;339.30;;;7.80;99.90;;;;;;5054082;28;20390;-60
2022/12/26 00:49:54;;;;;;;343.03;325.67;;;7.70;99.90;;;;;;5055451;28;20697;-61
2022/12/26 00:52:19;;;;;;;332.92;315.70;;;7.70;99.90;;;;;;5055518;28;20463;-60
2022/12/26 00:54:45;;;;;;;333.37;316.53;;;7.70;99.90;;;;;;5072067;28;20426;-60
2022/12/26 00:57:10;;;;;;;337.58;320.42;;;7.70;99.90;;;;;;5072628;28;20388;-60
2022/12/26 00:59:36;;;;;;;328.27;311.87;;;7.80;99.90;;;;;;5054218;28;20380;-61
2022/12/26 01:02:36;;;;;;;330.70;313.97;;;7.80;99.90;;;;;;5052786;28;20976;-60
2022/12/26 01:04:47;;;;;;;344.25;326.75;;;7.80;99.90;;;;;;5070125;28;20389;-61
2022/12/26 01:07:12;;;;;;;348.10;330.57;;;7.90;99.90;;;;;;5052269;28;20508;-61
2022/12/26 01:09:38;;;;;;;321.63;305.43;;;7.90;99.90;;;;;;5052982;28;20785;-61
2022/12/26 01:12:04;;;;;;;339.85;322.23;;;8.00;99.90;;;;;;5053528;28;20979;-61
2022/12/26 01:14:32;;;;;;;337.37;319.87;;;7.90;99.90;;;;;;5070855;28;21537;-60
2022/12/26 01:16:57;;;;;;;344.07;326.40;;;7.90;99.90;;;;;;5052911;28;20411;-61
2022/12/26 01:19:23;;;;;;;341.02;323.65;;;7.90;99.90;;;;;;5054167;28;20391;-61
2022/12/26 01:21:48;;;;;;;331.73;314.70;;;8.00;99.90;;;;;;5054326;28;20404;-60
2022/12/26 01:24:14;;;;;;;332.13;315.00;;;7.90;99.90;;;;;;5048953;28;20638;-61
2022/12/26 01:26:39;;;;;;;304.13;288.45;;;7.90;99.90;;;;;;5047149;28;20390;-61
2022/12/26 01:29:05;;;;;;;322.83;306.30;;;7.90;99.90;;;;;;5065473;28;20691;-61
2022/12/26 01:31:30;;;;;;;321.80;305.43;;;7.90;99.90;;;;;;5066901;28;20588;-60
2022/12/26 01:33:56;;;;;;;321.88;305.60;;;7.90;99.90;;;;;;5046171;28;20420;-59
2022/12/26 01:36:22;;;;;;;347.27;329.70;;;8.00;99.90;;;;;;5046816;28;20399;-59
2022/12/26 01:38:47;;;;;;;321.23;304.80;;;7.90;99.90;;;;;;5046150;28;20383;-59
2022/12/26 01:41:16;;;;;;;337.83;320.80;;;8.00;99.90;;;;;;5046569;28;20396;-60
2022/12/26 01:43:58;;;;;;;342.15;325.23;;;8.00;99.90;;;;;;5047015;28;20395;-61
2022/12/26 01:46:26;;;;;;;328.60;312.27;;;7.90;99.90;;;;;;5045673;28;20740;-61
2022/12/26 01:48:53;;;;;;;330.83;314.30;;;8.00;99.90;;;;;;5044373;28;20813;-61
2022/12/26 01:51:21;;;;;;;341.65;324.83;;;7.90;99.90;;;;;;5044197;28;20399;-61
2022/12/26 01:53:54;;;;;;;334.25;317.65;;;7.90;99.90;;;;;;5044659;28;20388;-59
2022/12/26 01:56:25;;;;;;;367.40;348.85;;;7.90;99.90;;;;;;5061456;28;20376;-61
2022/12/26 01:59:10;;;;;;;350.85;333.25;;;7.90;99.90;;;;;;5043282;28;20660;-61
2022/12/26 02:01:38;;;;;;;344.07;326.30;;;7.90;99.90;;;;;;5045187;28;20442;-59
2022/12/26 02:06:52;;;;;;;356.57;338.03;;;7.80;99.90;;;;;;5062715;28;20406;-61
2022/12/26 02:09:18;;;;;;;350.10;332.10;;;7.80;99.90;;;;;;5063447;28;20391;-60
2022/12/26 02:11:49;;;;;;;373.40;354.10;;;7.80;99.90;;;;;;5046809;28;20465;-60
2022/12/26 02:14:14;;;;;;;368.10;348.98;;;7.80;99.90;;;;;;5046610;28;20379;-60
2022/12/26 02:16:40;;;;;;;351.63;333.65;;;7.90;99.90;;;;;;5064511;28;20461;-59
2022/12/26 02:19:27;;;;;;;368.27;349.02;;;7.80;99.90;;;;;;5048829;28;20483;-61
2022/12/26 02:21:59;;;;;;;368.17;348.38;;;7.80;99.90;;;;;;5048858;28;20551;-61
2022/12/26 02:25:02;;;;;;;385.88;365.55;;;7.80;99.90;;;;;;5048340;28;20865;-59
2022/12/26 02:28:00;;;;;;;398.20;377.05;;;7.80;99.90;;;;;;5047722;28;20419;-61
2022/12/26 02:30:57;;;;;;;330.20;312.98;;;7.60;99.90;;;;;;5045060;28;20399;-61
2022/12/26 02:33:45;;;;;;;335.95;318.05;;;7.70;99.90;;;;;;5049888;28;20722;-61
2022/12/26 02:36:36;;;;;;;319.25;302.50;;;7.70;99.90;;;;;;5049797;28;20403;-59
2022/12/26 02:39:26;;;;;;;334.75;317.23;;;7.70;99.90;;;;;;5050859;28;20814;-61
2022/12/26 02:42:24;;;;;;;345.58;327.42;;;7.80;99.90;;;;;;5053450;28;20391;-61
2022/12/26 02:48:26;;;;;;;352.05;333.52;;;7.80;99.90;;;;;;5073409;28;20654;-62
2022/12/26 03:14:24;;;;;;;377.60;357.88;;;7.90;99.90;;;;;;5074876;28;20379;-61
2022/12/26 03:19:58;;;;;;;368.20;349.33;;;7.90;99.90;;;;;;5076556;28;20383;-61
2022/12/26 03:22:32;;;;;;;365.55;346.83;;;7.90;99.90;;;;;;5058804;28;20484;-61
2022/12/26 03:27:46;;;;;;;384.75;364.90;;;8.00;99.90;;;;;;5075004;28;20523;-62
2022/12/26 03:32:56;;;;;;;381.98;362.27;;;8.00;99.90;;;;;;5074508;28;20414;-62
2022/12/26 03:35:24;;;;;;;391.80;371.75;;;8.00;99.90;;;;;;5055388;28;20497;-60
2022/12/26 03:37:58;;;;;;;372.45;353.13;;;8.00;99.90;;;;;;5055152;28;20396;-61
2022/12/26 04:19:41;;;;;;;202.10;190.90;;;7.90;99.90;;;;;;5073675;28;20849;-61
2022/12/26 04:45:54;;;;;;;175.23;165.05;;;7.90;99.90;;;;;;5074853;28;20458;-61
2022/12/26 04:51:05;;;;;;;221.80;209.57;;;7.90;99.90;;;;;;5071911;28;20559;-61
2022/12/26 04:53:30;;;;;;;202.50;190.73;;;7.90;99.90;;;;;;5052911;28;20412;-61
2022/12/26 04:55:56;;;;;;;208.88;196.80;;;8.00;99.90;;;;;;5054674;28;20388;-61
2022/12/26 04:58:23;;;;;;;208.07;195.97;;;7.90;99.90;;;;;;5072328;28;20392;-61
2022/12/26 05:00:49;;;;;;;197.77;186.38;;;7.90;99.90;;;;;;5052787;28;20470;-61
2022/12/26 05:11:32;;;;;;;164.82;155.48;;;8.00;99.90;;;;;;5051050;28;20438;-58
2022/12/26 05:13:59;;;;;;;177.00;166.93;;;8.00;99.90;;;;;;5033339;28;20432;-59
2022/12/26 05:30:21;;;;;;;200.65;189.60;;;8.10;99.90;;;;;;5048623;28;20443;-60
2022/12/26 05:35:32;;;;;;;173.65;163.80;;;8.10;99.90;;;;;;5051328;28;20731;-57
2022/12/26 05:37:58;;;;;;;172.63;162.88;;;8.10;99.90;;;;;;5031901;28;20366;-59
2022/12/26 05:40:23;;;;;;;191.18;180.50;;;8.10;99.90;;;;;;5032470;28;20424;-59
2022/12/26 05:42:49;;;;;;;168.38;158.93;;;8.10;99.90;;;;;;5052047;28;20436;-59
2022/12/26 05:45:15;;;;;;;163.90;154.43;;;8.10;99.90;;;;;;5033668;28;20389;-60
2022/12/26 05:47:40;;;;;;;214.17;202.23;;;8.10;99.90;;;;;;5033588;28;20439;-60
2022/12/26 05:50:06;;;;;;;232.75;219.98;;;8.10;99.90;;;;;;5033576;28;20401;-60
2022/12/26 05:52:32;;;;;;;217.52;205.30;;;8.10;99.90;;;;;;5032126;28;20441;-60
2022/12/26 05:54:57;;;;;;;213.13;201.23;;;8.10;99.90;;;;;;5032533;28;20428;-60
2022/12/26 05:57:23;;;;;;;197.40;186.23;;;8.10;99.90;;;;;;5049881;28;20471;-58
2022/12/26 05:59:49;;;;;;;197.57;186.27;;;8.10;99.90;;;;;;5050422;28;20526;-61
2022/12/26 06:02:14;;;;;;;234.40;221.33;;;8.10;99.90;;;;;;5032065;28;20396;-60
2022/12/26 06:04:39;;;;;;;198.85;187.50;;;8.20;99.90;;;;;;5049690;28;20862;-60
2022/12/26 06:07:05;;;;;;;166.97;157.37;;;8.20;99.90;;;;;;5034342;28;20431;-63
2022/12/26 06:09:30;;;;;;;181.70;171.27;;;8.20;99.90;;;;;;5049306;28;20845;-60
2022/12/26 06:11:56;;;;;;;237.05;223.93;;;8.20;99.90;;;;;;5048998;28;20444;-60
2022/12/26 06:14:21;;;;;;;252.53;238.83;;;8.30;99.90;;;;;;5052502;28;20397;-60
2022/12/26 06:16:47;;;;;;;245.70;232.33;;;8.20;99.90;;;;;;5058016;28;20381;-61
2022/12/26 06:19:12;;;;;;;250.52;236.77;;;8.30;99.90;;;;;;5055067;28;20720;-61
2022/12/26 06:21:38;;;;;;;224.47;212.03;;;8.30;99.90;;;;;;5055451;28;20470;-65
2022/12/26 06:24:04;;;;;;;186.50;175.65;;;8.20;99.90;;;;;;5056973;28;20625;-60
2022/12/26 06:26:29;;;;;;;176.48;166.23;;;8.20;99.90;;;;;;5058515;28;20385;-61
2022/12/26 06:28:55;;;;;;;204.40;192.48;;;8.20;99.90;;;;;;5058722;28;20380;-61
2022/12/26 06:31:22;;;;;;;170.63;160.37;;;8.20;99.90;;;;;;5059032;28;20400;-60
2022/12/26 06:33:50;;;;;;;168.90;158.80;;;8.20;99.90;;;;;;5056956;28;20431;-58
2022/12/26 06:36:18;;;;;;;217.48;204.88;;;8.30;99.90;;;;;;5056207;28;20456;-59
2022/12/26 06:38:44;;;;;;;254.95;240.43;;;8.30;99.90;;;;;;5056522;28;20680;-60
2022/12/26 06:41:12;;;;;;;232.50;219.35;;;8.20;99.90;;;;;;5056323;28;20858;-61
2022/12/26 06:43:38;;;;;;;233.52;220.45;;;8.30;99.90;;;;;;5056786;28;20467;-63
2022/12/26 06:46:05;;;;;;;239.23;225.43;;;8.30;99.90;;;;;;5056332;28;20928;-60
2022/12/26 06:48:31;;;;;;;240.38;226.93;;;8.30;99.90;;;;;;5055581;28;20397;-60
2022/12/26 06:51:01;;;;;;;240.50;226.80;;;8.30;99.90;;;;;;5053939;28;20393;-59
2022/12/26 06:53:26;;;;;;;245.02;231.32;;;8.30;99.90;;;;;;5055196;28;20412;-59
2022/12/26 06:55:52;;;;;;;248.13;234.23;;;8.30;99.90;;;;;;5053429;28;20400;-59
2022/12/26 06:58:17;;;;;;;206.47;194.90;;;8.30;99.90;;;;;;5052380;28;20438;-58
2022/12/26 07:00:43;;;;;;;239.13;225.97;;;8.30;99.90;;;;;;5052122;28;20540;-60
2022/12/26 07:03:10;;;;;;;213.13;201.32;;;8.30;99.90;;;;;;5053087;28;20807;-60
2022/12/26 07:05:36;;;;;;;228.80;216.37;;;8.40;99.90;;;;;;5053166;28;20401;-60
2022/12/26 07:08:01;;;;;;;179.07;169.15;;;8.40;99.90;;;;;;5052774;28;20417;-60
2022/12/26 07:10:27;;;;;;;244.35;230.93;;;8.40;99.90;;;;;;5052157;28;20390;-60
2022/12/26 07:12:52;;;;;;;236.30;223.30;;;8.40;99.90;;;;;;5051416;28;20401;-60
2022/12/26 07:15:18;;;;;;;207.67;196.30;;;8.40;99.90;;;;;;5054716;28;20662;-60
2022/12/26 07:17:43;;;;;;;241.77;228.65;;;8.40;99.90;;;;;;5055114;28;20388;-58
2022/12/26 07:20:09;;;;;;;245.83;232.53;;;8.40;99.90;;;;;;5054295;28;20382;-59
2022/12/26 07:22:35;;;;;;;242.75;229.55;;;8.40;99.90;;;;;;5053618;28;20389;-60
2022/12/26 07:25:01;;;;;;;222.70;210.57;;;8.40;99.90;;;;;;5054503;28;20488;-61
2022/12/26 07:27:26;;;;;;;190.27;179.80;;;8.40;99.90;;;;;;5050537;28;20407;-60
2022/12/26 07:29:52;;;;;;;203.73;192.50;;;8.50;99.90;;;;;;5050082;28;20411;-60
2022/12/26 07:32:17;;;;;;;239.77;226.43;;;8.50;99.90;;;;;;5049473;28;20681;-59
2022/12/26 07:34:43;;;;;;;235.20;222.17;;;8.40;99.90;;;;;;5049412;28;20461;-60
2022/12/26 07:37:09;;;;;;;251.23;237.17;;;8.50;99.90;;;;;;5049967;28;20389;-60
2022/12/26 07:39:36;;;;;;;147.23;138.60;;;8.50;99.90;;;;;;5047392;28;20463;-60
2022/12/26 07:42:03;;;;;;;178.23;167.98;;;8.50;99.90;;;;;;5046020;28;20442;-60
2022/12/26 07:44:31;;;;;;;228.45;215.88;;;8.50;99.90;;;;;;5046301;28;20389;-60
2022/12/26 07:46:58;;;;;;;219.32;207.23;;;8.50;99.90;;;;;;5045187;28;20613;-60
2022/12/26 07:49:23;;;;;;;188.98;178.27;;;8.50;99.90;;;;;;5046757;28;20419;-58
2022/12/26 07:51:50;;;;;;;214.02;202.07;;;8.50;99.90;;;;;;5048299;28;20682;-59
2022/12/26 07:54:15;;;;;;;233.07;220.32;;;8.50;99.90;;;;;;5049042;28;20386;-65
2022/12/26 07:56:41;;;;;;;270.52;255.43;;;8.60;99.90;;;;;;5045808;28;20435;-58
2022/12/26 07:59:11;;;;;;;286.98;271.63;;;8.60;99.90;;;;;;5045870;28;20382;-60
2022/12/26 08:01:36;;;;;;;286.23;270.70;;;8.60;99.90;;;;;;5049120;28;20393;-60
2022/12/26 08:04:02;;;;;;;292.27;276.33;;;8.60;99.90;;;;;;5046582;28;20392;-60
2022/12/26 08:06:27;;;;;;;284.40;268.87;;;8.60;99.90;;;;;;5047439;28;20398;-59
2022/12/26 08:08:53;;;;;;;277.10;262.25;;;8.60;99.90;;;;;;5067040;28;20384;-59
2022/12/26 08:11:22;;;;;;;235.73;222.83;;;8.60;99.90;;;;;;5047086;28;20682;-60
2022/12/26 08:13:48;;;;;;;260.15;246.38;;;8.70;99.90;;;;;;5047124;28;20402;-59
2022/12/26 08:16:14;;;;;;;295.08;279.35;;;8.70;99.90;;;;;;5044478;28;20392;-60
2022/12/26 08:18:40;;;;;;;341.58;323.75;;;8.70;99.90;;;;;;5043032;28;20668;-59
2022/12/26 08:21:05;;;;;;;327.90;310.90;;;8.80;99.90;;;;;;5041792;28;20691;-60
2022/12/26 08:23:32;;;;;;;335.20;317.58;;;8.80;99.90;;;;;;5042326;28;20815;-60
2022/12/26 08:25:58;;;;;;;329.95;312.73;;;8.70;99.90;;;;;;5042527;28;20496;-59
2022/12/26 08:28:23;;;;;;;330.42;313.33;;;8.80;99.90;;;;;;5042842;28;20384;-60
2022/12/26 08:30:49;;;;;;;328.90;311.87;;;8.80;99.90;;;;;;5043830;28;20395;-60
2022/12/26 08:33:15;;;;;;;338.23;320.23;;;8.80;99.90;;;;;;5046717;28;20908;-58
2022/12/26 08:35:41;;;;;;;344.35;326.35;;;8.80;99.90;;;;;;5046764;28;20808;-60
2022/12/26 08:38:06;;;;;;;342.05;323.77;;;8.80;99.90;;;;;;5045194;28;20807;-60
2022/12/26 08:40:32;;;;;;;339.30;321.58;;;8.80;99.90;;;;;;5046983;28;20872;-60
2022/12/26 08:42:58;;;;;;;393.90;373.02;;;8.90;99.90;;;;;;5065354;28;20391;-60
2022/12/26 08:45:24;;;;;;;404.40;382.63;;;8.90;99.90;;;;;;5065519;28;20389;-61
2022/12/26 08:47:50;;;;;;;399.55;378.10;;;8.90;99.90;;;;;;5045450;28;20392;-60
2022/12/26 08:50:16;;;;;;;386.08;365.60;;;8.90;99.90;;;;;;5046589;28;20413;-60
2022/12/26 08:52:42;;;;;;;366.70;347.27;;;8.90;99.90;;;;;;5046418;28;20415;-59
2022/12/26 08:55:08;;;;;;;363.87;344.70;;;8.90;99.90;;;;;;5048519;28;20392;-60
2022/12/26 08:57:33;;;;;;;311.55;294.80;;;8.90;99.90;;;;;;5048802;28;20889;-59
2022/12/26 08:59:59;;;;;;;327.77;310.40;;;8.90;99.90;;;;;;5047762;28;20426;-60
2022/12/26 09:02:24;;;;;;;370.13;350.42;;;8.90;99.90;;;;;;5065164;28;20387;-60
2022/12/26 09:04:50;;;;;;;376.83;356.65;;;8.90;99.90;;;;;;5046255;28;20809;-60
2022/12/26 09:07:16;;;;;;;348.70;330.02;;;8.90;99.90;;;;;;5044642;28;20423;-59
2022/12/26 09:09:42;;;;;;;328.30;310.92;;;8.90;99.90;;;;;;5044312;28;20726;-60
2022/12/26 09:12:08;;;;;;;315.88;299.13;;;8.90;99.90;;;;;;5062069;28;20571;-60
2022/12/26 09:14:34;;;;;;;366.90;347.45;;;8.90;99.90;;;;;;5044437;28;20663;-59
2022/12/26 09:16:59;;;;;;;372.02;352.45;;;8.90;99.90;;;;;;5061192;28;20391;-58
2022/12/26 09:19:28;;;;;;;330.60;313.30;;;8.90;99.90;;;;;;5059380;28;20729;-60
2022/12/26 09:22:49;;;;;;;379.27;359.10;;;8.90;99.90;;;;;;5040930;28;20379;-60
2022/12/26 09:24:39;;;;;;;369.00;349.17;;;8.90;99.90;;;;;;5058153;28;20544;-59
2022/12/26 09:27:05;;;;;;;379.45;359.15;;;9.00;99.90;;;;;;5038277;28;20399;-60
2022/12/26 09:29:30;;;;;;;375.90;355.73;;;9.00;99.90;;;;;;5039578;28;20415;-59
2022/12/26 09:31:56;;;;;;;372.03;351.93;;;9.00;99.90;;;;;;5040154;28;20422;-60
2022/12/26 09:34:21;;;;;;;364.67;345.63;;;9.00;99.90;;;;;;5040029;28;20702;-60
2022/12/26 09:36:47;;;;;;;352.83;334.03;;;9.00;99.90;;;;;;5039572;28;20478;-58
2022/12/26 09:39:12;;;;;;;350.57;331.83;;;9.00;99.90;;;;;;5059254;28;20393;-61
2022/12/26 09:41:57;;;;;;;309.15;292.80;;;9.00;99.90;;;;;;5040535;28;20427;-61
2022/12/26 09:44:49;;;;;;;325.95;308.50;;;9.00;99.90;;;;;;5039699;28;20456;-61
2022/12/26 09:47:32;;;;;;;334.67;316.73;;;9.00;99.90;;;;;;5039036;28;20425;-61
2022/12/26 09:50:17;;;;;;;322.73;305.30;;;9.00;99.90;;;;;;5040101;28;20565;-60
2022/12/26 09:52:53;;;;;;;330.23;312.63;;;9.00;99.90;;;;;;5039748;28;20447;-63
2022/12/26 09:55:36;;;;;;;344.97;326.50;;;9.00;99.90;;;;;;5040409;28;20372;-61
2022/12/26 09:58:20;;;;;;;361.40;341.42;;;9.00;99.90;;;;;;5040269;28;20376;-61
2022/12/26 10:00:52;;;;;;;365.57;345.80;;;9.00;99.90;;;;;;5042223;28;20380;-60
2022/12/26 10:03:18;;;;;;;371.20;351.08;;;9.00;99.90;;;;;;5042874;28;20598;-61
2022/12/26 10:06:02;;;;;;;376.67;356.67;;;9.10;99.90;;;;;;5042181;28;20700;-61
2022/12/26 10:08:42;;;;;;;373.75;353.92;;;9.10;99.90;;;;;;5042305;28;20692;-61
2022/12/26 10:11:21;;;;;;;381.92;361.75;;;9.10;99.90;;;;;;5043212;28;20433;-60
2022/12/26 10:14:00;;;;;;;427.45;404.20;;;9.10;99.90;;;;;;5043743;28;20403;-60
2022/12/26 10:16:48;;;;;;;486.08;459.27;;;9.10;99.90;;;;;;5039629;28;20610;-61
2022/12/26 10:19:32;;;;;;;474.02;448.00;;;9.10;99.90;;;;;;5056973;28;20661;-61
2022/12/26 10:22:03;;;;;;;479.30;452.88;;;9.10;99.90;;;;;;5039960;28;20395;-60
2022/12/26 10:24:33;;;;;;;473.52;447.50;;;9.10;99.90;;;;;;5039543;28;20680;-60
2022/12/26 10:27:04;;;;;;;471.08;445.38;;;9.10;99.90;;;;;;5056815;28;20480;-59
2022/12/26 10:29:39;;;;;;;467.70;442.27;;;9.20;99.90;;;;;;5040369;28;20536;-58
2022/12/26 10:32:07;;;;;;;468.85;443.27;;;9.20;99.90;;;;;;5059839;28;20489;-60
2022/12/26 10:34:39;;;;;;;460.73;436.25;;;9.20;99.90;;;;;;5043797;28;20383;-61
2022/12/26 10:37:17;;;;;;;429.70;406.38;;;9.20;99.90;;;;;;5042209;28;20666;-60
2022/12/26 10:39:49;;;;;;;430.10;407.40;;;9.20;99.90;;;;;;5042656;28;20421;-61
2022/12/26 10:42:21;;;;;;;440.35;417.13;;;9.20;99.90;;;;;;5043736;28;20445;-61
2022/12/26 10:44:46;;;;;;;460.30;435.88;;;9.20;99.90;;;;;;5046262;28;20378;-61
2022/12/26 10:47:19;;;;;;;445.17;421.33;;;9.20;99.90;;;;;;5046057;28;20399;-59
2022/12/26 10:49:46;;;;;;;392.27;371.80;;;9.20;99.90;;;;;;5063654;28;20379;-59
2022/12/26 10:52:14;;;;;;;375.75;356.30;;;9.20;99.90;;;;;;5063292;28;20404;-60
2022/12/26 10:54:40;;;;;;;366.85;348.10;;;9.20;99.90;;;;;;5044787;28;20457;-58
2022/12/26 10:57:07;;;;;;;380.93;361.07;;;9.20;99.90;;;;;;5042998;28;20630;-60
2022/12/26 10:59:51;;;;;;;375.63;356.08;;;9.30;99.90;;;;;;5042179;28;20380;-61
2022/12/26 11:02:32;;;;;;;384.35;364.05;;;9.30;99.90;;;;;;5047714;28;20716;-60
2022/12/26 11:05:13;;;;;;;373.83;354.52;;;9.30;99.90;;;;;;5049167;28;20447;-60
2022/12/26 11:08:24;;;;;;;367.67;348.33;;;9.30;99.90;;;;;;5065455;28;20443;-60
2022/12/26 11:11:12;;;;;;;372.40;352.73;;;9.30;99.90;;;;;;5014467;28;20411;-60
2022/12/26 11:13:55;;;;;;;395.08;374.83;;;9.30;99.90;;;;;;5054635;28;20823;-52
2022/12/26 11:16:34;;;;;;;404.27;383.35;;;9.40;99.90;;;;;;5054642;28;20956;-56
2022/12/26 11:19:00;;;;;;;533.47;504.17;;;9.50;99.90;;;;;;5052296;28;20474;-61
2022/12/26 11:21:28;;;;;;;537.97;508.55;;;9.50;99.90;;;;;;5053298;28;20479;-59
2022/12/26 11:24:09;;;;;;;544.35;514.63;;;9.40;99.90;;;;;;5053806;28;20410;-62
2022/12/26 11:26:36;;;;;;;545.00;515.13;;;9.40;99.90;;;;;;5055970;28;20387;-60
2022/12/26 11:29:24;;;;;;;524.97;496.27;;;9.40;99.90;;;;;;5073773;28;20379;-59
2022/12/26 11:31:58;;;;;;;522.10;493.65;;;9.40;99.90;;;;;;5055439;28;20392;-60
2022/12/26 11:34:26;;;;;;;515.85;487.90;;;9.40;99.90;;;;;;5072010;28;20379;-60
2022/12/26 11:36:52;;;;;;;541.13;511.27;;;9.40;99.90;;;;;;5053444;28;20411;-60
2022/12/26 11:39:27;;;;;;;545.45;515.17;;;9.40;99.90;;;;;;5051743;28;20387;-60
2022/12/26 11:41:54;;;;;;;545.17;514.70;;;9.40;99.90;;;;;;5050895;28;20380;-58
2022/12/26 11:44:30;;;;;;;525.80;496.90;;;9.40;99.90;;;;;;5068788;28;20469;-61
2022/12/26 11:47:18;;;;;;;522.50;493.80;;;9.40;99.90;;;;;;5051017;28;20380;-60
2022/12/26 11:50:08;;;;;;;533.73;504.50;;;9.40;99.90;;;;;;5050574;28;20418;-60
2022/12/26 11:52:54;;;;;;;549.90;519.70;;;9.40;99.90;;;;;;5050143;28;20419;-62
2022/12/26 11:55:23;;;;;;;548.80;518.45;;;9.40;99.90;;;;;;5067749;28;20486;-60
2022/12/26 11:58:16;;;;;;;557.33;526.63;;;9.40;99.90;;;;;;5065540;28;20383;-60
2022/12/26 12:00:49;;;;;;;551.23;520.57;;;9.50;99.90;;;;;;5065604;28;20486;-60
2022/12/26 12:03:20;;;;;;;546.72;516.08;;;9.50;99.90;;;;;;5046412;28;20387;-59
2022/12/26 12:05:51;;;;;;;549.17;518.97;;;9.50;99.90;;;;;;5066132;28;20450;-59
2022/12/26 12:09:10;;;;;;;553.70;522.72;;;9.50;99.90;;;;;;5064637;28;20894;-59
2022/12/26 12:11:48;;;;;;;539.72;509.67;;;9.50;99.90;;;;;;5038990;28;20465;-60
2022/12/26 12:14:24;;;;;;;540.03;510.42;;;9.50;99.90;;;;;;5057678;28;20468;-60
2022/12/26 12:17:03;;;;;;;517.85;489.75;;;9.50;99.90;;;;;;5038603;28;20391;-63
2022/12/26 12:19:43;;;;;;;515.80;488.20;;;9.50;99.90;;;;;;5054399;28;20398;-59
2022/12/26 12:22:33;;;;;;;450.13;426.03;;;9.50;99.90;;;;;;5038840;28;20399;-59
2022/12/26 12:25:23;;;;;;;372.88;353.67;;;9.50;99.90;;;;;;5041767;28;20388;-58
2022/12/26 12:27:59;;;;;;;377.50;357.60;;;9.40;99.90;;;;;;5045965;28;20469;-60
2022/12/26 12:30:40;;;;;;;340.27;322.13;;;9.30;99.90;;;;;;5045304;28;20387;-60
2022/12/26 12:33:33;;;;;;;340.08;321.88;;;9.30;99.90;;;;;;5046087;28;20431;-60
2022/12/26 12:36:04;;;;;;;350.65;332.08;;;9.30;99.90;;;;;;5044643;28;20482;-60
2022/12/26 12:38:38;;;;;;;384.10;363.55;;;9.30;99.90;;;;;;5041899;28;20608;-60
2022/12/26 12:41:26;;;;;;;377.58;357.50;;;9.30;99.90;;;;;;5040916;28;20687;-60
2022/12/26 12:44:13;;;;;;;372.52;352.63;;;9.30;99.90;;;;;;5057001;28;20380;-59
2022/12/26 12:46:58;;;;;;;377.33;357.58;;;9.40;99.90;;;;;;5038891;28;20384;-60
2022/12/26 12:49:35;;;;;;;375.23;355.10;;;9.40;99.90;;;;;;5036476;28;20387;-60
2022/12/26 12:52:21;;;;;;;382.83;362.70;;;9.40;99.90;;;;;;5053769;28;20395;-60
2022/12/26 12:55:22;;;;;;;399.40;378.52;;;9.50;99.90;;;;;;5055062;28;20394;-59
2022/12/26 12:57:54;;;;;;;396.77;375.90;;;9.50;99.90;;;;;;5035846;28;20656;-61
2022/12/26 13:00:23;;;;;;;425.40;403.63;;;9.50;99.90;;;;;;5038111;28;20382;-59
2022/12/26 13:03:04;;;;;;;423.33;401.60;;;9.50;99.90;;;;;;5038750;28;20411;-59
2022/12/26 13:05:51;;;;;;;380.60;361.20;;;9.50;99.90;;;;;;5041200;28;20441;-59
2022/12/26 13:08:25;;;;;;;383.55;363.52;;;9.60;99.90;;;;;;5042004;28;20843;-59
2022/12/26 13:10:56;;;;;;;463.00;438.48;;;9.70;99.90;;;;;;5043885;28;20526;-60
2022/12/26 13:13:34;;;;;;;458.77;434.92;;;9.70;99.90;;;;;;5045693;28;20775;-60
2022/12/26 13:16:17;;;;;;;553.72;523.22;;;9.80;99.90;;;;;;5064172;28;20429;-58
2022/12/26 13:19:00;;;;;;;562.10;530.83;;;9.80;99.90;;;;;;5066039;28;20517;-60
2022/12/26 13:21:29;;;;;;;586.00;553.03;;;9.80;99.90;;;;;;5067660;28;20489;-61
2022/12/26 13:24:23;;;;;;;641.13;602.95;;;9.90;99.90;;;;;;5048254;28;20448;-58
2022/12/26 13:26:59;;;;;;;615.97;580.28;;;10.10;99.90;;;;;;5049892;28;20384;-60
2022/12/26 13:29:39;;;;;;;574.08;541.58;;;10.10;99.90;;;;;;5050266;28;20395;-61
2022/12/26 13:32:21;;;;;;;573.55;540.72;;;10.00;99.90;;;;;;5043507;28;20491;-60
2022/12/26 13:34:48;;;;;;;588.60;555.20;;;9.90;99.90;;;;;;5049212;28;20414;-60
2022/12/26 13:37:38;;;;;;;533.08;503.08;;;9.80;99.90;;;;;;5052202;28;20387;-61
2022/12/26 13:40:10;;;;;;;530.45;501.00;;;9.80;99.90;;;;;;5052629;28;20680;-61
2022/12/26 13:45:42;;;;;;;443.00;419.40;;;9.90;99.90;;;;;;5068865;28;20379;-59
2022/12/26 13:48:16;;;;;;;433.40;411.17;;;9.80;99.90;;;;;;5052860;28;20397;-59
2022/12/26 13:50:50;;;;;;;436.92;414.67;;;9.70;99.90;;;;;;5070049;28;20409;-60
2022/12/26 13:53:25;;;;;;;423.10;401.52;;;9.60;99.90;;;;;;5052516;28;20411;-60
2022/12/26 13:56:12;;;;;;;417.13;395.48;;;9.50;99.90;;;;;;5052754;28;20415;-60
2022/12/26 13:58:59;;;;;;;411.35;390.55;;;9.40;99.90;;;;;;5050213;28;21026;-62
2022/12/26 14:01:35;;;;;;;426.60;404.50;;;9.30;99.90;;;;;;5051342;28;20787;-60
2022/12/26 14:04:12;;;;;;;419.58;397.63;;;9.20;99.90;;;;;;5051017;28;20513;-60
2022/12/26 14:07:13;;;;;;;416.90;395.52;;;9.20;99.90;;;;;;5049973;28;20395;-60
2022/12/26 14:09:47;;;;;;;417.48;396.17;;;9.20;99.90;;;;;;5049063;28;20388;-60
2022/12/26 14:12:35;;;;;;;427.48;405.40;;;9.20;99.90;;;;;;5048115;28;21039;-60
2022/12/26 14:15:21;;;;;;;474.85;449.73;;;9.10;99.90;;;;;;5045937;28;20388;-59
2022/12/26 14:18:13;;;;;;;501.07;474.60;;;9.00;99.90;;;;;;5063460;28;20429;-61
2022/12/26 14:20:56;;;;;;;519.90;492.43;;;8.80;99.90;;;;;;5062434;28;20387;-59
2022/12/26 14:23:27;;;;;;;522.55;494.67;;;8.80;99.90;;;;;;5046580;28;20455;-58
2022/12/26 14:26:14;;;;;;;507.23;480.23;;;8.70;99.90;;;;;;5046907;28;20383;-59
2022/12/26 14:28:51;;;;;;;502.88;476.27;;;8.60;99.90;;;;;;5041650;28;20517;-60
2022/12/26 14:31:41;;;;;;;519.08;491.10;;;8.60;99.90;;;;;;5056409;28;20462;-60
2022/12/26 14:34:30;;;;;;;512.75;484.85;;;8.60;99.90;;;;;;5038397;28;20615;-60
2022/12/26 14:37:23;;;;;;;529.55;500.98;;;8.50;99.90;;;;;;5043775;28;20400;-58
2022/12/26 14:40:07;;;;;;;531.93;502.93;;;8.50;99.90;;;;;;5044484;28;20486;-60
2022/12/26 14:43:12;;;;;;;527.00;498.85;;;8.40;99.90;;;;;;5046097;28;20383;-57
2022/12/26 14:45:49;;;;;;;511.02;483.55;;;8.30;99.90;;;;;;5063768;28;20792;-60
2022/12/26 14:48:15;;;;;;;538.30;508.33;;;8.30;99.90;;;;;;5045794;28;20655;-57
2022/12/26 14:50:45;;;;;;;518.93;490.73;;;8.30;99.90;;;;;;5047330;28;20399;-60
2022/12/26 14:53:28;;;;;;;514.75;486.85;;;8.30;99.90;;;;;;5045113;28;20556;-59
2022/12/26 14:55:56;;;;;;;531.25;502.00;;;8.20;99.90;;;;;;5044887;28;20384;-60